sensor_id;sensor_type;location;lat;lon;timestamp;P1;durP1;ratioP1;P2;durP2;ratioP2
81510;SDS011;70931;48.796;8.440;2024-02-16T00:00:21;1.63;;;0.50;;
81510;SDS011;70931;48.796;8.440;2024-02-16T00:02:46;1.80;;;0.77;;
81510;SDS011;70931;48.796;8.440;2024-02-16T00:05:12;1.73;;;0.77;;
81510;SDS011;70931;48.796;8.440;2024-02-16T00:07:37;4.40;;;1.03;;
81510;SDS011;70931;48.796;8.440;2024-02-16T00:10:04;4.18;;;0.90;;
81510;SDS011;70931;48.796;8.440;2024-02-16T00:12:33;1.75;;;0.70;;
81510;SDS011;70931;48.796;8.440;2024-02-16T00:14:59;3.90;;;1.13;;
81510;SDS011;70931;48.796;8.440;2024-02-16T00:17:25;3.88;;;1.10;;
81510;SDS011;70931;48.796;8.440;2024-02-16T00:19:50;2.42;;;0.85;;
81510;SDS011;70931;48.796;8.440;2024-02-16T00:22:15;1.77;;;0.80;;
81510;SDS011;70931;48.796;8.440;2024-02-16T00:24:41;3.77;;;0.83;;
81510;SDS011;70931;48.796;8.440;2024-02-16T00:27:06;1.70;;;0.83;;
81510;SDS011;70931;48.796;8.440;2024-02-16T00:29:31;2.27;;;0.87;;
81510;SDS011;70931;48.796;8.440;2024-02-16T00:31:57;3.30;;;0.93;;
81510;SDS011;70931;48.796;8.440;2024-02-16T00:34:22;3.20;;;0.80;;
81510;SDS011;70931;48.796;8.440;2024-02-16T00:36:47;3.57;;;0.70;;
81510;SDS011;70931;48.796;8.440;2024-02-16T00:39:13;3.67;;;0.90;;
81510;SDS011;70931;48.796;8.440;2024-02-16T00:41:38;2.90;;;1.03;;
81510;SDS011;70931;48.796;8.440;2024-02-16T00:44:03;3.60;;;0.80;;
81510;SDS011;70931;48.796;8.440;2024-02-16T00:46:28;2.07;;;0.63;;
81510;SDS011;70931;48.796;8.440;2024-02-16T00:48:54;2.80;;;1.00;;
81510;SDS011;70931;48.796;8.440;2024-02-16T00:51:19;3.17;;;0.80;;
81510;SDS011;70931;48.796;8.440;2024-02-16T00:53:44;2.25;;;0.90;;
81510;SDS011;70931;48.796;8.440;2024-02-16T00:56:10;3.07;;;0.90;;
81510;SDS011;70931;48.796;8.440;2024-02-16T00:58:35;3.63;;;1.03;;
81510;SDS011;70931;48.796;8.440;2024-02-16T01:01:01;2.45;;;0.90;;
81510;SDS011;70931;48.796;8.440;2024-02-16T01:03:26;3.93;;;0.90;;
81510;SDS011;70931;48.796;8.440;2024-02-16T01:05:54;6.43;;;1.10;;
81510;SDS011;70931;48.796;8.440;2024-02-16T01:08:20;2.08;;;0.95;;
81510;SDS011;70931;48.796;8.440;2024-02-16T01:10:45;2.33;;;0.73;;
81510;SDS011;70931;48.796;8.440;2024-02-16T01:13:10;2.30;;;0.80;;
81510;SDS011;70931;48.796;8.440;2024-02-16T01:15:36;3.27;;;0.80;;
81510;SDS011;70931;48.796;8.440;2024-02-16T01:18:01;3.10;;;0.90;;
81510;SDS011;70931;48.796;8.440;2024-02-16T01:20:26;3.63;;;1.00;;
81510;SDS011;70931;48.796;8.440;2024-02-16T01:22:51;4.77;;;1.10;;
81510;SDS011;70931;48.796;8.440;2024-02-16T01:25:16;3.47;;;0.87;;
81510;SDS011;70931;48.796;8.440;2024-02-16T01:27:42;2.27;;;1.07;;
81510;SDS011;70931;48.796;8.440;2024-02-16T01:30:07;6.17;;;1.43;;
81510;SDS011;70931;48.796;8.440;2024-02-16T01:32:33;3.90;;;0.95;;
81510;SDS011;70931;48.796;8.440;2024-02-16T01:34:58;4.50;;;1.20;;
81510;SDS011;70931;48.796;8.440;2024-02-16T01:37:23;6.43;;;1.13;;
81510;SDS011;70931;48.796;8.440;2024-02-16T01:39:48;1.97;;;0.90;;
81510;SDS011;70931;48.796;8.440;2024-02-16T01:42:13;8.73;;;1.57;;
81510;SDS011;70931;48.796;8.440;2024-02-16T01:44:39;3.80;;;1.00;;
81510;SDS011;70931;48.796;8.440;2024-02-16T01:47:04;2.93;;;1.00;;
81510;SDS011;70931;48.796;8.440;2024-02-16T01:49:29;2.88;;;0.80;;
81510;SDS011;70931;48.796;8.440;2024-02-16T01:51:55;4.13;;;1.17;;
81510;SDS011;70931;48.796;8.440;2024-02-16T01:54:20;2.80;;;1.00;;
81510;SDS011;70931;48.796;8.440;2024-02-16T01:56:45;3.20;;;1.13;;
81510;SDS011;70931;48.796;8.440;2024-02-16T01:59:11;3.58;;;0.90;;
81510;SDS011;70931;48.796;8.440;2024-02-16T02:01:36;2.73;;;1.03;;
81510;SDS011;70931;48.796;8.440;2024-02-16T02:04:02;3.60;;;1.02;;
81510;SDS011;70931;48.796;8.440;2024-02-16T02:06:27;4.87;;;0.97;;
81510;SDS011;70931;48.796;8.440;2024-02-16T02:08:52;1.97;;;0.80;;
81510;SDS011;70931;48.796;8.440;2024-02-16T02:11:18;3.03;;;1.00;;
81510;SDS011;70931;48.796;8.440;2024-02-16T02:13:43;3.43;;;1.07;;
81510;SDS011;70931;48.796;8.440;2024-02-16T02:16:09;2.17;;;0.70;;
81510;SDS011;70931;48.796;8.440;2024-02-16T02:18:34;2.10;;;0.90;;
81510;SDS011;70931;48.796;8.440;2024-02-16T02:21:00;2.53;;;0.77;;
81510;SDS011;70931;48.796;8.440;2024-02-16T02:23:25;2.90;;;1.07;;
81510;SDS011;70931;48.796;8.440;2024-02-16T02:25:50;2.37;;;1.00;;
81510;SDS011;70931;48.796;8.440;2024-02-16T02:28:15;4.53;;;1.30;;
81510;SDS011;70931;48.796;8.440;2024-02-16T02:30:41;6.07;;;1.10;;
81510;SDS011;70931;48.796;8.440;2024-02-16T02:33:06;1.77;;;0.80;;
81510;SDS011;70931;48.796;8.440;2024-02-16T02:35:31;2.53;;;0.90;;
81510;SDS011;70931;48.796;8.440;2024-02-16T02:37:56;4.50;;;0.90;;
81510;SDS011;70931;48.796;8.440;2024-02-16T02:40:22;2.83;;;1.03;;
81510;SDS011;70931;48.796;8.440;2024-02-16T02:42:47;2.03;;;0.90;;
81510;SDS011;70931;48.796;8.440;2024-02-16T02:45:12;3.47;;;1.13;;
81510;SDS011;70931;48.796;8.440;2024-02-16T02:47:37;3.20;;;1.00;;
81510;SDS011;70931;48.796;8.440;2024-02-16T02:50:03;2.13;;;0.90;;
81510;SDS011;70931;48.796;8.440;2024-02-16T02:52:28;2.67;;;0.95;;
81510;SDS011;70931;48.796;8.440;2024-02-16T02:54:54;3.57;;;0.93;;
81510;SDS011;70931;48.796;8.440;2024-02-16T02:57:19;2.37;;;0.80;;
81510;SDS011;70931;48.796;8.440;2024-02-16T02:59:44;2.43;;;0.80;;
81510;SDS011;70931;48.796;8.440;2024-02-16T03:02:09;2.97;;;1.03;;
81510;SDS011;70931;48.796;8.440;2024-02-16T03:04:35;6.53;;;1.33;;
81510;SDS011;70931;48.796;8.440;2024-02-16T03:07:00;2.57;;;0.90;;
81510;SDS011;70931;48.796;8.440;2024-02-16T03:09:25;5.30;;;1.00;;
81510;SDS011;70931;48.796;8.440;2024-02-16T03:11:50;2.33;;;0.83;;
81510;SDS011;70931;48.796;8.440;2024-02-16T03:14:16;2.27;;;1.03;;
81510;SDS011;70931;48.796;8.440;2024-02-16T03:16:42;2.97;;;0.93;;
81510;SDS011;70931;48.796;8.440;2024-02-16T03:19:07;4.63;;;1.03;;
81510;SDS011;70931;48.796;8.440;2024-02-16T03:21:32;2.43;;;1.03;;
81510;SDS011;70931;48.796;8.440;2024-02-16T03:23:57;2.23;;;1.10;;
81510;SDS011;70931;48.796;8.440;2024-02-16T03:26:23;2.63;;;0.90;;
81510;SDS011;70931;48.796;8.440;2024-02-16T03:28:48;4.27;;;1.20;;
81510;SDS011;70931;48.796;8.440;2024-02-16T03:31:17;3.33;;;1.00;;
81510;SDS011;70931;48.796;8.440;2024-02-16T03:33:42;3.60;;;1.05;;
81510;SDS011;70931;48.796;8.440;2024-02-16T03:36:07;6.07;;;2.00;;
81510;SDS011;70931;48.796;8.440;2024-02-16T03:38:33;5.07;;;1.80;;
81510;SDS011;70931;48.796;8.440;2024-02-16T03:40:58;6.13;;;1.60;;
81510;SDS011;70931;48.796;8.440;2024-02-16T03:43:23;3.67;;;1.10;;
81510;SDS011;70931;48.796;8.440;2024-02-16T03:45:48;4.73;;;1.33;;
81510;SDS011;70931;48.796;8.440;2024-02-16T03:48:14;5.63;;;2.63;;
81510;SDS011;70931;48.796;8.440;2024-02-16T03:50:39;8.07;;;3.53;;
81510;SDS011;70931;48.796;8.440;2024-02-16T03:53:04;7.43;;;2.43;;
81510;SDS011;70931;48.796;8.440;2024-02-16T03:55:29;5.43;;;2.40;;
81510;SDS011;70931;48.796;8.440;2024-02-16T03:57:54;5.67;;;2.07;;
81510;SDS011;70931;48.796;8.440;2024-02-16T04:00:20;3.73;;;1.53;;
81510;SDS011;70931;48.796;8.440;2024-02-16T04:02:45;5.13;;;1.63;;
81510;SDS011;70931;48.796;8.440;2024-02-16T04:05:10;5.80;;;1.47;;
81510;SDS011;70931;48.796;8.440;2024-02-16T04:07:35;3.80;;;1.40;;
81510;SDS011;70931;48.796;8.440;2024-02-16T04:10:01;3.57;;;1.30;;
81510;SDS011;70931;48.796;8.440;2024-02-16T04:12:26;5.50;;;1.40;;
81510;SDS011;70931;48.796;8.440;2024-02-16T04:14:51;3.00;;;1.10;;
81510;SDS011;70931;48.796;8.440;2024-02-16T04:17:16;4.20;;;1.30;;
81510;SDS011;70931;48.796;8.440;2024-02-16T04:19:42;5.07;;;1.63;;
81510;SDS011;70931;48.796;8.440;2024-02-16T04:22:07;3.53;;;1.20;;
81510;SDS011;70931;48.796;8.440;2024-02-16T04:24:32;4.30;;;1.33;;
81510;SDS011;70931;48.796;8.440;2024-02-16T04:26:57;7.03;;;1.60;;
81510;SDS011;70931;48.796;8.440;2024-02-16T04:29:22;5.93;;;1.63;;
81510;SDS011;70931;48.796;8.440;2024-02-16T04:31:48;4.13;;;1.50;;
81510;SDS011;70931;48.796;8.440;2024-02-16T04:34:13;4.83;;;1.87;;
81510;SDS011;70931;48.796;8.440;2024-02-16T04:36:39;5.25;;;1.70;;
81510;SDS011;70931;48.796;8.440;2024-02-16T04:39:04;4.07;;;1.30;;
81510;SDS011;70931;48.796;8.440;2024-02-16T04:41:29;4.47;;;1.80;;
81510;SDS011;70931;48.796;8.440;2024-02-16T04:43:54;3.37;;;1.40;;
81510;SDS011;70931;48.796;8.440;2024-02-16T04:46:20;6.73;;;2.73;;
81510;SDS011;70931;48.796;8.440;2024-02-16T04:48:45;8.03;;;2.70;;
81510;SDS011;70931;48.796;8.440;2024-02-16T04:51:10;6.57;;;3.30;;
81510;SDS011;70931;48.796;8.440;2024-02-16T04:53:36;9.73;;;3.70;;
81510;SDS011;70931;48.796;8.440;2024-02-16T04:56:01;7.30;;;2.70;;
81510;SDS011;70931;48.796;8.440;2024-02-16T04:58:26;3.77;;;1.20;;
81510;SDS011;70931;48.796;8.440;2024-02-16T05:00:52;4.33;;;1.33;;
81510;SDS011;70931;48.796;8.440;2024-02-16T05:03:17;6.20;;;1.50;;
81510;SDS011;70931;48.796;8.440;2024-02-16T05:05:42;3.37;;;1.13;;
81510;SDS011;70931;48.796;8.440;2024-02-16T05:08:07;5.33;;;1.40;;
81510;SDS011;70931;48.796;8.440;2024-02-16T05:10:33;3.43;;;1.40;;
81510;SDS011;70931;48.796;8.440;2024-02-16T05:12:58;5.00;;;1.17;;
81510;SDS011;70931;48.796;8.440;2024-02-16T05:15:23;3.07;;;1.10;;
81510;SDS011;70931;48.796;8.440;2024-02-16T05:17:49;3.63;;;1.23;;
81510;SDS011;70931;48.796;8.440;2024-02-16T05:20:14;7.87;;;2.00;;
81510;SDS011;70931;48.796;8.440;2024-02-16T05:22:39;3.93;;;1.40;;
81510;SDS011;70931;48.796;8.440;2024-02-16T05:25:05;3.37;;;1.40;;
81510;SDS011;70931;48.796;8.440;2024-02-16T05:27:30;4.40;;;1.30;;
81510;SDS011;70931;48.796;8.440;2024-02-16T05:29:55;4.07;;;1.23;;
81510;SDS011;70931;48.796;8.440;2024-02-16T05:32:20;6.13;;;1.47;;
81510;SDS011;70931;48.796;8.440;2024-02-16T05:34:46;6.03;;;1.60;;
81510;SDS011;70931;48.796;8.440;2024-02-16T05:37:11;3.40;;;1.33;;
81510;SDS011;70931;48.796;8.440;2024-02-16T05:39:36;3.27;;;1.40;;
81510;SDS011;70931;48.796;8.440;2024-02-16T05:42:02;4.15;;;1.77;;
81510;SDS011;70931;48.796;8.440;2024-02-16T05:44:27;5.88;;;1.58;;
81510;SDS011;70931;48.796;8.440;2024-02-16T05:46:53;4.40;;;1.43;;
81510;SDS011;70931;48.796;8.440;2024-02-16T05:49:19;2.95;;;1.35;;
81510;SDS011;70931;48.796;8.440;2024-02-16T05:51:44;3.97;;;1.23;;
81510;SDS011;70931;48.796;8.440;2024-02-16T05:54:09;4.03;;;1.37;;
81510;SDS011;70931;48.796;8.440;2024-02-16T05:56:34;5.43;;;2.03;;
81510;SDS011;70931;48.796;8.440;2024-02-16T05:59:00;4.73;;;1.53;;
81510;SDS011;70931;48.796;8.440;2024-02-16T06:01:25;3.92;;;1.25;;
81510;SDS011;70931;48.796;8.440;2024-02-16T06:03:51;4.13;;;1.33;;
81510;SDS011;70931;48.796;8.440;2024-02-16T06:06:16;6.70;;;1.40;;
81510;SDS011;70931;48.796;8.440;2024-02-16T06:08:41;4.27;;;1.23;;
81510;SDS011;70931;48.796;8.440;2024-02-16T06:11:07;3.40;;;1.60;;
81510;SDS011;70931;48.796;8.440;2024-02-16T06:13:32;3.60;;;1.50;;
81510;SDS011;70931;48.796;8.440;2024-02-16T06:15:58;4.37;;;1.60;;
81510;SDS011;70931;48.796;8.440;2024-02-16T06:18:23;5.77;;;1.40;;
81510;SDS011;70931;48.796;8.440;2024-02-16T06:20:48;6.07;;;1.40;;
81510;SDS011;70931;48.796;8.440;2024-02-16T06:23:13;4.80;;;1.30;;
81510;SDS011;70931;48.796;8.440;2024-02-16T06:25:38;3.83;;;1.20;;
81510;SDS011;70931;48.796;8.440;2024-02-16T06:28:04;5.40;;;1.20;;
81510;SDS011;70931;48.796;8.440;2024-02-16T06:30:29;2.77;;;1.20;;
81510;SDS011;70931;48.796;8.440;2024-02-16T06:32:54;4.73;;;1.60;;
81510;SDS011;70931;48.796;8.440;2024-02-16T06:35:19;4.17;;;1.50;;
81510;SDS011;70931;48.796;8.440;2024-02-16T06:37:45;3.67;;;1.37;;
81510;SDS011;70931;48.796;8.440;2024-02-16T06:40:10;5.30;;;1.60;;
81510;SDS011;70931;48.796;8.440;2024-02-16T06:42:36;6.50;;;1.65;;
81510;SDS011;70931;48.796;8.440;2024-02-16T06:45:01;4.63;;;1.60;;
81510;SDS011;70931;48.796;8.440;2024-02-16T06:47:27;3.88;;;1.38;;
81510;SDS011;70931;48.796;8.440;2024-02-16T06:49:52;4.33;;;1.63;;
81510;SDS011;70931;48.796;8.440;2024-02-16T06:52:17;5.83;;;1.73;;
81510;SDS011;70931;48.796;8.440;2024-02-16T06:54:43;3.37;;;1.37;;
81510;SDS011;70931;48.796;8.440;2024-02-16T06:57:08;4.87;;;1.50;;
81510;SDS011;70931;48.796;8.440;2024-02-16T06:59:33;3.50;;;1.60;;
81510;SDS011;70931;48.796;8.440;2024-02-16T07:01:58;5.70;;;1.50;;
81510;SDS011;70931;48.796;8.440;2024-02-16T07:04:23;7.67;;;1.60;;
81510;SDS011;70931;48.796;8.440;2024-02-16T07:06:49;4.73;;;1.97;;
81510;SDS011;70931;48.796;8.440;2024-02-16T07:09:14;6.30;;;2.20;;
81510;SDS011;70931;48.796;8.440;2024-02-16T07:11:39;4.33;;;1.70;;
81510;SDS011;70931;48.796;8.440;2024-02-16T07:14:04;3.77;;;1.47;;
81510;SDS011;70931;48.796;8.440;2024-02-16T07:16:30;4.80;;;1.67;;
81510;SDS011;70931;48.796;8.440;2024-02-16T07:18:55;3.47;;;1.40;;
81510;SDS011;70931;48.796;8.440;2024-02-16T07:21:20;6.63;;;2.07;;
81510;SDS011;70931;48.796;8.440;2024-02-16T07:23:45;6.30;;;2.30;;
81510;SDS011;70931;48.796;8.440;2024-02-16T07:26:11;4.17;;;1.60;;
81510;SDS011;70931;48.796;8.440;2024-02-16T07:28:36;4.53;;;1.80;;
81510;SDS011;70931;48.796;8.440;2024-02-16T07:31:01;5.10;;;1.60;;
81510;SDS011;70931;48.796;8.440;2024-02-16T07:33:26;4.82;;;1.80;;
81510;SDS011;70931;48.796;8.440;2024-02-16T07:35:52;4.40;;;1.60;;
81510;SDS011;70931;48.796;8.440;2024-02-16T07:38:17;5.07;;;1.63;;
81510;SDS011;70931;48.796;8.440;2024-02-16T07:40:42;4.93;;;1.55;;
81510;SDS011;70931;48.796;8.440;2024-02-16T07:43:08;6.20;;;1.80;;
81510;SDS011;70931;48.796;8.440;2024-02-16T07:45:33;3.63;;;1.50;;
81510;SDS011;70931;48.796;8.440;2024-02-16T07:47:58;5.13;;;1.73;;
81510;SDS011;70931;48.796;8.440;2024-02-16T07:50:23;6.47;;;2.13;;
81510;SDS011;70931;48.796;8.440;2024-02-16T07:52:49;4.23;;;1.73;;
81510;SDS011;70931;48.796;8.440;2024-02-16T07:55:15;5.38;;;1.92;;
81510;SDS011;70931;48.796;8.440;2024-02-16T07:57:40;5.57;;;1.42;;
81510;SDS011;70931;48.796;8.440;2024-02-16T08:00:06;4.57;;;2.00;;
81510;SDS011;70931;48.796;8.440;2024-02-16T08:02:32;3.83;;;1.50;;
81510;SDS011;70931;48.796;8.440;2024-02-16T08:04:58;3.58;;;1.50;;
81510;SDS011;70931;48.796;8.440;2024-02-16T08:07:23;3.97;;;1.40;;
81510;SDS011;70931;48.796;8.440;2024-02-16T08:09:48;4.03;;;1.13;;
81510;SDS011;70931;48.796;8.440;2024-02-16T08:12:14;4.40;;;1.30;;
81510;SDS011;70931;48.796;8.440;2024-02-16T08:14:40;3.38;;;1.35;;
81510;SDS011;70931;48.796;8.440;2024-02-16T08:17:05;5.87;;;1.40;;
81510;SDS011;70931;48.796;8.440;2024-02-16T08:19:32;3.65;;;1.40;;
81510;SDS011;70931;48.796;8.440;2024-02-16T08:21:59;4.85;;;1.40;;
81510;SDS011;70931;48.796;8.440;2024-02-16T08:24:25;4.70;;;1.33;;
81510;SDS011;70931;48.796;8.440;2024-02-16T08:26:50;3.20;;;1.20;;
81510;SDS011;70931;48.796;8.440;2024-02-16T08:29:16;5.75;;;1.15;;
81510;SDS011;70931;48.796;8.440;2024-02-16T08:31:41;5.47;;;1.00;;
81510;SDS011;70931;48.796;8.440;2024-02-16T08:34:06;3.67;;;1.00;;
81510;SDS011;70931;48.796;8.440;2024-02-16T08:36:31;4.23;;;1.30;;
81510;SDS011;70931;48.796;8.440;2024-02-16T08:38:57;3.57;;;1.20;;
81510;SDS011;70931;48.796;8.440;2024-02-16T08:41:22;4.97;;;1.60;;
81510;SDS011;70931;48.796;8.440;2024-02-16T08:43:47;5.67;;;1.40;;
81510;SDS011;70931;48.796;8.440;2024-02-16T08:46:12;4.27;;;1.50;;
81510;SDS011;70931;48.796;8.440;2024-02-16T08:48:37;4.23;;;1.63;;
81510;SDS011;70931;48.796;8.440;2024-02-16T08:51:03;5.00;;;1.60;;
81510;SDS011;70931;48.796;8.440;2024-02-16T08:53:28;4.50;;;1.50;;
81510;SDS011;70931;48.796;8.440;2024-02-16T08:55:53;4.53;;;1.50;;
81510;SDS011;70931;48.796;8.440;2024-02-16T08:58:18;3.17;;;1.20;;
81510;SDS011;70931;48.796;8.440;2024-02-16T09:00:44;5.93;;;1.40;;
81510;SDS011;70931;48.796;8.440;2024-02-16T09:03:10;2.65;;;1.10;;
81510;SDS011;70931;48.796;8.440;2024-02-16T09:05:36;4.87;;;1.40;;
81510;SDS011;70931;48.796;8.440;2024-02-16T09:08:01;5.23;;;1.60;;
81510;SDS011;70931;48.796;8.440;2024-02-16T09:10:26;4.57;;;1.40;;
81510;SDS011;70931;48.796;8.440;2024-02-16T09:12:51;4.27;;;1.20;;
81510;SDS011;70931;48.796;8.440;2024-02-16T09:15:17;5.97;;;1.70;;
81510;SDS011;70931;48.796;8.440;2024-02-16T09:17:42;4.10;;;1.40;;
81510;SDS011;70931;48.796;8.440;2024-02-16T09:20:07;6.10;;;1.30;;
81510;SDS011;70931;48.796;8.440;2024-02-16T09:22:33;4.40;;;1.48;;
81510;SDS011;70931;48.796;8.440;2024-02-16T09:24:58;3.87;;;1.30;;
81510;SDS011;70931;48.796;8.440;2024-02-16T09:27:23;4.40;;;1.30;;
81510;SDS011;70931;48.796;8.440;2024-02-16T09:29:49;3.93;;;1.23;;
81510;SDS011;70931;48.796;8.440;2024-02-16T09:32:14;4.43;;;1.50;;
81510;SDS011;70931;48.796;8.440;2024-02-16T09:34:39;4.27;;;1.33;;
81510;SDS011;70931;48.796;8.440;2024-02-16T09:37:04;3.70;;;1.30;;
81510;SDS011;70931;48.796;8.440;2024-02-16T09:39:30;3.60;;;1.40;;
81510;SDS011;70931;48.796;8.440;2024-02-16T09:41:55;4.30;;;1.30;;
81510;SDS011;70931;48.796;8.440;2024-02-16T09:44:20;3.53;;;1.40;;
81510;SDS011;70931;48.796;8.440;2024-02-16T09:46:47;2.95;;;1.27;;
81510;SDS011;70931;48.796;8.440;2024-02-16T09:49:12;4.07;;;1.77;;
81510;SDS011;70931;48.796;8.440;2024-02-16T09:51:37;4.50;;;1.50;;
81510;SDS011;70931;48.796;8.440;2024-02-16T09:54:03;2.83;;;1.47;;
81510;SDS011;70931;48.796;8.440;2024-02-16T09:56:29;4.55;;;1.52;;
81510;SDS011;70931;48.796;8.440;2024-02-16T09:58:54;4.30;;;1.30;;
81510;SDS011;70931;48.796;8.440;2024-02-16T10:01:20;3.72;;;1.30;;
81510;SDS011;70931;48.796;8.440;2024-02-16T10:03:46;3.35;;;1.45;;
81510;SDS011;70931;48.796;8.440;2024-02-16T10:06:12;5.00;;;1.40;;
81510;SDS011;70931;48.796;8.440;2024-02-16T10:11:17;5.50;;;1.60;;
81510;SDS011;70931;48.796;8.440;2024-02-16T10:14:07;4.45;;;1.40;;
81510;SDS011;70931;48.796;8.440;2024-02-16T10:16:31;3.60;;;1.40;;
81510;SDS011;70931;48.796;8.440;2024-02-16T10:19:06;5.43;;;1.53;;
81510;SDS011;70931;48.796;8.440;2024-02-16T10:21:32;5.45;;;1.40;;
81510;SDS011;70931;48.796;8.440;2024-02-16T10:26:27;5.78;;;1.73;;
81510;SDS011;70931;48.796;8.440;2024-02-16T10:28:54;5.50;;;2.00;;
81510;SDS011;70931;48.796;8.440;2024-02-16T10:31:21;5.05;;;1.50;;
81510;SDS011;70931;48.796;8.440;2024-02-16T10:33:47;4.18;;;1.50;;
81510;SDS011;70931;48.796;8.440;2024-02-16T10:36:12;4.67;;;1.57;;
81510;SDS011;70931;48.796;8.440;2024-02-16T10:38:38;5.35;;;1.42;;
81510;SDS011;70931;48.796;8.440;2024-02-16T10:41:05;6.28;;;1.73;;
81510;SDS011;70931;48.796;8.440;2024-02-16T10:43:32;5.72;;;1.67;;
81510;SDS011;70931;48.796;8.440;2024-02-16T10:45:57;4.60;;;1.80;;
81510;SDS011;70931;48.796;8.440;2024-02-16T10:48:23;4.38;;;1.63;;
81510;SDS011;70931;48.796;8.440;2024-02-16T10:50:49;6.37;;;1.70;;
81510;SDS011;70931;48.796;8.440;2024-02-16T10:55:43;4.00;;;1.60;;
81510;SDS011;70931;48.796;8.440;2024-02-16T10:58:10;7.80;;;1.70;;
81510;SDS011;70931;48.796;8.440;2024-02-16T11:00:35;4.60;;;1.75;;
81510;SDS011;70931;48.796;8.440;2024-02-16T11:03:01;5.07;;;1.67;;
81510;SDS011;70931;48.796;8.440;2024-02-16T11:05:31;6.88;;;1.80;;
81510;SDS011;70931;48.796;8.440;2024-02-16T11:08:04;8.32;;;1.77;;
81510;SDS011;70931;48.796;8.440;2024-02-16T11:10:30;5.35;;;1.73;;
81510;SDS011;70931;48.796;8.440;2024-02-16T11:13:00;4.65;;;1.52;;
81510;SDS011;70931;48.796;8.440;2024-02-16T11:15:27;6.72;;;1.65;;
81510;SDS011;70931;48.796;8.440;2024-02-16T11:17:56;4.65;;;1.80;;
81510;SDS011;70931;48.796;8.440;2024-02-16T11:20:23;5.25;;;1.60;;
81510;SDS011;70931;48.796;8.440;2024-02-16T11:22:50;7.70;;;2.00;;
81510;SDS011;70931;48.796;8.440;2024-02-16T11:25:16;5.93;;;1.45;;
81510;SDS011;70931;48.796;8.440;2024-02-16T11:27:41;5.10;;;1.80;;
81510;SDS011;70931;48.796;8.440;2024-02-16T11:30:07;4.63;;;1.50;;
81510;SDS011;70931;48.796;8.440;2024-02-16T11:32:35;6.13;;;1.70;;
81510;SDS011;70931;48.796;8.440;2024-02-16T11:35:04;5.20;;;1.80;;
81510;SDS011;70931;48.796;8.440;2024-02-16T11:37:30;4.78;;;1.80;;
81510;SDS011;70931;48.796;8.440;2024-02-16T11:39:55;4.30;;;1.57;;
81510;SDS011;70931;48.796;8.440;2024-02-16T11:42:21;9.23;;;1.60;;
81510;SDS011;70931;48.796;8.440;2024-02-16T11:44:53;5.77;;;1.70;;
81510;SDS011;70931;48.796;8.440;2024-02-16T11:47:19;5.28;;;1.77;;
81510;SDS011;70931;48.796;8.440;2024-02-16T11:49:46;8.55;;;1.70;;
81510;SDS011;70931;48.796;8.440;2024-02-16T11:52:11;4.63;;;1.77;;
81510;SDS011;70931;48.796;8.440;2024-02-16T11:54:36;8.30;;;2.20;;
81510;SDS011;70931;48.796;8.440;2024-02-16T11:57:02;4.33;;;1.50;;
81510;SDS011;70931;48.796;8.440;2024-02-16T11:59:28;5.28;;;1.80;;
81510;SDS011;70931;48.796;8.440;2024-02-16T12:01:54;5.83;;;1.90;;
81510;SDS011;70931;48.796;8.440;2024-02-16T12:04:25;5.60;;;1.50;;
81510;SDS011;70931;48.796;8.440;2024-02-16T12:06:52;7.82;;;1.98;;
81510;SDS011;70931;48.796;8.440;2024-02-16T12:09:27;6.30;;;1.60;;
81510;SDS011;70931;48.796;8.440;2024-02-16T12:11:53;6.93;;;1.95;;
81510;SDS011;70931;48.796;8.440;2024-02-16T12:14:21;5.80;;;1.70;;
81510;SDS011;70931;48.796;8.440;2024-02-16T12:16:50;5.50;;;1.80;;
81510;SDS011;70931;48.796;8.440;2024-02-16T12:19:18;4.80;;;1.73;;
81510;SDS011;70931;48.796;8.440;2024-02-16T12:21:43;5.20;;;1.98;;
81510;SDS011;70931;48.796;8.440;2024-02-16T12:24:09;5.40;;;2.53;;
81510;SDS011;70931;48.796;8.440;2024-02-16T12:26:34;5.70;;;1.80;;
81510;SDS011;70931;48.796;8.440;2024-02-16T12:28:59;6.73;;;2.27;;
81510;SDS011;70931;48.796;8.440;2024-02-16T12:31:25;6.23;;;1.70;;
81510;SDS011;70931;48.796;8.440;2024-02-16T12:33:50;4.93;;;1.77;;
81510;SDS011;70931;48.796;8.440;2024-02-16T12:36:15;6.57;;;1.73;;
81510;SDS011;70931;48.796;8.440;2024-02-16T12:38:40;5.40;;;1.90;;
81510;SDS011;70931;48.796;8.440;2024-02-16T12:41:06;7.40;;;1.77;;
81510;SDS011;70931;48.796;8.440;2024-02-16T12:43:32;5.07;;;1.77;;
81510;SDS011;70931;48.796;8.440;2024-02-16T12:45:57;8.23;;;1.98;;
81510;SDS011;70931;48.796;8.440;2024-02-16T12:48:23;7.50;;;1.90;;
81510;SDS011;70931;48.796;8.440;2024-02-16T12:50:48;4.90;;;1.80;;
81510;SDS011;70931;48.796;8.440;2024-02-16T12:53:13;4.70;;;1.67;;
81510;SDS011;70931;48.796;8.440;2024-02-16T12:55:38;4.37;;;1.57;;
81510;SDS011;70931;48.796;8.440;2024-02-16T12:58:04;4.93;;;1.80;;
81510;SDS011;70931;48.796;8.440;2024-02-16T13:00:29;5.80;;;1.70;;
81510;SDS011;70931;48.796;8.440;2024-02-16T13:02:54;6.07;;;1.57;;
81510;SDS011;70931;48.796;8.440;2024-02-16T13:05:20;4.10;;;2.03;;
81510;SDS011;70931;48.796;8.440;2024-02-16T13:07:45;7.13;;;1.80;;
81510;SDS011;70931;48.796;8.440;2024-02-16T13:10:10;6.33;;;1.73;;
81510;SDS011;70931;48.796;8.440;2024-02-16T13:12:36;7.03;;;2.00;;
81510;SDS011;70931;48.796;8.440;2024-02-16T13:15:02;6.95;;;2.20;;
81510;SDS011;70931;48.796;8.440;2024-02-16T13:17:29;9.27;;;1.90;;
81510;SDS011;70931;48.796;8.440;2024-02-16T13:19:54;4.15;;;1.73;;
81510;SDS011;70931;48.796;8.440;2024-02-16T13:22:20;5.13;;;1.83;;
81510;SDS011;70931;48.796;8.440;2024-02-16T13:24:45;5.07;;;1.90;;
81510;SDS011;70931;48.796;8.440;2024-02-16T13:27:10;5.33;;;1.87;;
81510;SDS011;70931;48.796;8.440;2024-02-16T13:29:35;5.77;;;1.60;;
81510;SDS011;70931;48.796;8.440;2024-02-16T13:32:01;5.50;;;1.50;;
81510;SDS011;70931;48.796;8.440;2024-02-16T13:34:26;4.43;;;1.70;;
81510;SDS011;70931;48.796;8.440;2024-02-16T13:36:51;7.47;;;2.20;;
81510;SDS011;70931;48.796;8.440;2024-02-16T13:39:17;5.72;;;1.70;;
81510;SDS011;70931;48.796;8.440;2024-02-16T13:41:42;5.53;;;1.50;;
81510;SDS011;70931;48.796;8.440;2024-02-16T13:44:07;5.00;;;1.60;;
81510;SDS011;70931;48.796;8.440;2024-02-16T13:46:33;7.03;;;2.10;;
81510;SDS011;70931;48.796;8.440;2024-02-16T13:48:58;4.50;;;1.60;;
81510;SDS011;70931;48.796;8.440;2024-02-16T13:51:23;5.20;;;2.00;;
81510;SDS011;70931;48.796;8.440;2024-02-16T13:53:48;6.57;;;1.83;;
81510;SDS011;70931;48.796;8.440;2024-02-16T13:56:14;5.33;;;1.60;;
81510;SDS011;70931;48.796;8.440;2024-02-16T13:58:39;5.87;;;1.70;;
81510;SDS011;70931;48.796;8.440;2024-02-16T14:01:04;7.53;;;1.87;;
81510;SDS011;70931;48.796;8.440;2024-02-16T14:03:29;4.28;;;1.60;;
81510;SDS011;70931;48.796;8.440;2024-02-16T14:05:55;5.22;;;1.80;;
81510;SDS011;70931;48.796;8.440;2024-02-16T14:08:21;4.72;;;1.65;;
81510;SDS011;70931;48.796;8.440;2024-02-16T14:10:46;5.47;;;1.87;;
81510;SDS011;70931;48.796;8.440;2024-02-16T14:13:11;6.20;;;1.73;;
81510;SDS011;70931;48.796;8.440;2024-02-16T14:15:36;4.50;;;1.57;;
81510;SDS011;70931;48.796;8.440;2024-02-16T14:18:02;6.77;;;2.10;;
81510;SDS011;70931;48.796;8.440;2024-02-16T14:20:27;6.35;;;2.10;;
81510;SDS011;70931;48.796;8.440;2024-02-16T14:22:52;5.53;;;1.70;;
81510;SDS011;70931;48.796;8.440;2024-02-16T14:25:17;4.40;;;1.70;;
81510;SDS011;70931;48.796;8.440;2024-02-16T14:27:43;4.87;;;1.60;;
81510;SDS011;70931;48.796;8.440;2024-02-16T14:30:08;6.10;;;2.00;;
81510;SDS011;70931;48.796;8.440;2024-02-16T14:32:33;6.60;;;2.45;;
81510;SDS011;70931;48.796;8.440;2024-02-16T14:34:59;4.37;;;1.43;;
81510;SDS011;70931;48.796;8.440;2024-02-16T14:37:25;4.35;;;1.50;;
81510;SDS011;70931;48.796;8.440;2024-02-16T14:39:50;3.50;;;1.43;;
81510;SDS011;70931;48.796;8.440;2024-02-16T14:42:16;6.33;;;1.63;;
81510;SDS011;70931;48.796;8.440;2024-02-16T14:44:41;4.60;;;1.80;;